createdAt,value
2023-03-27T00:01:22.177Z,94684.44
2023-03-27T00:03:50.644Z,94685.22
2023-03-27T00:06:19.135Z,94687.38
2023-03-27T00:08:51.051Z,94691.06
2023-03-27T00:11:18.724Z,94682.16
2023-03-27T00:13:49.302Z,94679.84
2023-03-27T00:16:23.665Z,94671.50
2023-03-27T00:18:50.364Z,94675.72
2023-03-27T00:21:16.886Z,94668.69
2023-03-27T00:23:43.368Z,94680.25
2023-03-27T00:26:11.857Z,94661.22
2023-03-27T00:28:38.589Z,94676.19
2023-03-27T00:31:11.546Z,94687.16
2023-03-27T00:33:38.315Z,94687.19
2023-03-27T00:36:05.207Z,94668.44
2023-03-27T00:38:32.212Z,94684.22
2023-03-27T00:40:58.832Z,94682.91
2023-03-27T00:43:41.046Z,94674.88
2023-03-27T00:46:44.863Z,94690.19
2023-03-27T00:49:14.487Z,94681.31
2023-03-27T00:51:44.108Z,94684.16
2023-03-27T00:54:13.179Z,94687.56
2023-03-27T00:56:39.784Z,94683.97
2023-03-27T00:59:12.473Z,94684.94
2023-03-27T01:01:40.086Z,94687.09
2023-03-27T01:04:08.995Z,94697.63
2023-03-27T01:06:36.771Z,94687.72
2023-03-27T01:09:04.575Z,94681.78
2023-03-27T01:11:53.067Z,94695.13
2023-03-27T01:14:46.730Z,94687.88
2023-03-27T01:17:32.413Z,94690.69
2023-03-27T01:20:20.231Z,94676.88
2023-03-27T01:23:11.835Z,94688.56
2023-03-27T01:26:04.340Z,94692.28
2023-03-27T01:28:44.192Z,94669.09
2023-03-27T01:31:29.571Z,94687.66
2023-03-27T01:34:02.098Z,94683.88
2023-03-27T01:36:43.454Z,94682.47
2023-03-27T01:39:57.977Z,94672.59
2023-03-27T01:42:41.351Z,94676.75
2023-03-27T01:45:15.774Z,94675.25
2023-03-27T01:47:51.621Z,94682.28
2023-03-27T01:50:23.789Z,94684.06
2023-03-27T01:52:56.228Z,94674.72
2023-03-27T01:55:29.126Z,94684.69
2023-03-27T01:58:05.084Z,94696.72
2023-03-27T02:00:51.936Z,94694.63
2023-03-27T02:03:28.966Z,94711.34
2023-03-27T02:06:08.631Z,94708.19
2023-03-27T02:08:46.531Z,94703.19
2023-03-27T02:11:23.488Z,94696.50
2023-03-27T02:14:03.747Z,94705.03
2023-03-27T02:16:35.632Z,94708.19
2023-03-27T02:19:12.690Z,94703.50
2023-03-27T02:21:39.183Z,94710.63
2023-03-27T02:24:06.488Z,94716.09
2023-03-27T02:26:33.850Z,94714.59
2023-03-27T02:29:23.735Z,94716.66
2023-03-27T02:32:35.185Z,94707.88
2023-03-27T02:35:22.794Z,94717.72
2023-03-27T02:38:08.327Z,94732.28
2023-03-27T02:40:44.649Z,94730.28
2023-03-27T02:43:46.924Z,94723.00
2023-03-27T02:46:31.888Z,94711.81
2023-03-27T02:49:04.606Z,94727.41
2023-03-27T02:51:37.290Z,94742.59
2023-03-27T02:54:12.906Z,94741.28
2023-03-27T02:56:47.459Z,94751.19
2023-03-27T02:59:35.581Z,94740.78
2023-03-27T03:02:09.465Z,94748.88
2023-03-27T03:04:57.021Z,94741.84
2023-03-27T03:07:28.698Z,94735.56
2023-03-27T03:09:55.319Z,94754.66
2023-03-27T03:12:22.006Z,94751.34
2023-03-27T03:14:48.567Z,94749.22
2023-03-27T03:17:16.309Z,94765.16
2023-03-27T03:19:44.823Z,94752.41
2023-03-27T03:22:11.346Z,94754.53
2023-03-27T03:24:42.373Z,94770.13
2023-03-27T03:27:10.873Z,94784.19
2023-03-27T03:29:47.378Z,94778.00
2023-03-27T03:32:20.632Z,94772.50
2023-03-27T03:34:50.606Z,94770.69
2023-03-27T03:37:17.457Z,94786.38
2023-03-27T03:39:44.031Z,94783.47
2023-03-27T03:42:10.645Z,94781.66
2023-03-27T03:44:51.109Z,94801.47
2023-03-27T03:47:19.768Z,94783.22
2023-03-27T03:49:47.361Z,94790.81
2023-03-27T03:52:14.703Z,94800.03
2023-03-27T03:54:41.446Z,94815.94
2023-03-27T03:57:08.748Z,94813.06
2023-03-27T03:59:35.654Z,94812.59
2023-03-27T04:02:28.845Z,94809.47
2023-03-27T04:05:10.593Z,94826.97
2023-03-27T04:07:39.989Z,94824.63
2023-03-27T04:10:26.646Z,94816.56
2023-03-27T04:12:53.497Z,94830.34
2023-03-27T04:15:27.090Z,94833.47
2023-03-27T04:18:04.165Z,94828.00
2023-03-27T04:20:34.594Z,94829.03
2023-03-27T04:23:03.832Z,94836.09
2023-03-27T04:25:34.869Z,94831.88
2023-03-27T04:28:04.268Z,94841.00
2023-03-27T04:30:37.081Z,94848.31
2023-03-27T04:33:22.876Z,94856.13
2023-03-27T04:36:16.425Z,94874.13
2023-03-27T04:39:02.204Z,94877.50
2023-03-27T04:41:29.590Z,94884.06
2023-03-27T04:43:56.156Z,94891.91
2023-03-27T04:46:23.257Z,94902.63
2023-03-27T04:48:56.370Z,94896.38
2023-03-27T04:51:42.370Z,94915.94
2023-03-27T04:54:10.310Z,94924.28
2023-03-27T04:56:42.198Z,94937.91
2023-03-27T04:59:08.896Z,94939.44
2023-03-27T05:01:36.092Z,94952.78
2023-03-27T05:04:27.200Z,94946.28
2023-03-27T05:07:12.077Z,94964.50
2023-03-27T05:09:38.680Z,94973.91
2023-03-27T05:12:06.708Z,94980.19
2023-03-27T05:14:40.150Z,94986.97
2023-03-27T05:17:16.052Z,94994.28
2023-03-27T05:19:44.808Z,95010.22
2023-03-27T05:22:13.813Z,95009.44
2023-03-27T05:24:49.196Z,95005.50
2023-03-27T05:27:15.670Z,95033.16
2023-03-27T05:29:47.345Z,95033.19
2023-03-27T05:32:14.850Z,95053.25
2023-03-27T05:35:04.362Z,95062.91
2023-03-27T05:37:37.324Z,95076.44
2023-03-27T05:40:28.237Z,95074.59
2023-03-27T05:42:56.375Z,95079.28
2023-03-27T05:45:26.893Z,95092.56
2023-03-27T05:47:56.002Z,95110.84
2023-03-27T05:50:26.397Z,95117.38
2023-03-27T05:53:02.950Z,95123.88
2023-03-27T05:55:37.097Z,95121.28
2023-03-27T05:58:06.029Z,95143.22
2023-03-27T06:00:34.343Z,95163.81
2023-03-27T06:03:02.986Z,95158.59
2023-03-27T06:05:48.869Z,95171.13
2023-03-27T06:08:15.665Z,95181.56
2023-03-27T06:10:44.088Z,95182.53
2023-03-27T06:13:24.058Z,95201.84
2023-03-27T06:15:56.345Z,95201.59
2023-03-27T06:18:42.297Z,95216.69
2023-03-27T06:21:10.703Z,95214.25
2023-03-27T06:23:37.656Z,95234.63
2023-03-27T06:26:10.086Z,95231.69
2023-03-27T06:28:36.790Z,95250.97
2023-03-27T06:31:03.989Z,95256.44
2023-03-27T06:33:40.392Z,95263.44
2023-03-27T06:36:15.869Z,95276.16
2023-03-27T06:38:43.910Z,95280.19
2023-03-27T06:41:10.497Z,95282.66
2023-03-27T06:43:57.587Z,95274.56
2023-03-27T06:46:45.916Z,95299.38
2023-03-27T06:49:32.854Z,95308.84
2023-03-27T06:52:05.761Z,95317.63
2023-03-27T06:54:32.289Z,95320.72
2023-03-27T06:57:01.234Z,95331.19
2023-03-27T06:59:36.188Z,95321.72
2023-03-27T07:02:03.675Z,95333.75
2023-03-27T07:04:33.857Z,95335.78
2023-03-27T07:07:11.080Z,95357.44
2023-03-27T07:09:41.151Z,95357.69
2023-03-27T07:12:09.404Z,95372.53
2023-03-27T07:14:38.008Z,95377.09
2023-03-27T07:17:05.352Z,95381.63
2023-03-27T07:20:03.916Z,95403.59
2023-03-27T07:22:31.055Z,95399.91
2023-03-27T07:25:04.791Z,95409.91
2023-03-27T07:27:37.512Z,95415.50
2023-03-27T07:30:07.874Z,95428.59
2023-03-27T07:32:38.203Z,95441.75
2023-03-27T07:35:08.526Z,95434.09
2023-03-27T07:37:54.532Z,95450.28
2023-03-27T07:40:40.175Z,95452.50
2023-03-27T07:43:27.388Z,95469.00
2023-03-27T07:45:54.127Z,95471.38
2023-03-27T07:48:21.583Z,95477.06
2023-03-27T07:50:48.056Z,95482.25
2023-03-27T07:53:32.457Z,95502.00
2023-03-27T07:56:06.092Z,95498.06
2023-03-27T07:58:32.693Z,95519.75
2023-03-27T08:01:01.895Z,95507.75
2023-03-27T08:03:31.819Z,95534.44
2023-03-27T08:06:00.106Z,95531.28
2023-03-27T08:08:29.755Z,95532.88
2023-03-27T08:10:58.075Z,95534.28
2023-03-27T08:13:29.014Z,95548.00
2023-03-27T08:16:04.865Z,95550.44
2023-03-27T08:18:31.349Z,95552.34
2023-03-27T08:20:58.438Z,95567.22
2023-03-27T08:23:27.304Z,95570.16
2023-03-27T08:26:14.463Z,95576.78
2023-03-27T08:28:47.925Z,95585.34
2023-03-27T08:31:16.256Z,95594.81
2023-03-27T08:33:44.335Z,95610.38
2023-03-27T08:36:16.298Z,95621.38
2023-03-27T08:38:43.282Z,95612.53
2023-03-27T08:41:33.087Z,95632.63
2023-03-27T08:44:31.865Z,95636.25
2023-03-27T08:47:34.036Z,95631.75
2023-03-27T08:50:41.179Z,95635.94
2023-03-27T08:53:35.461Z,95645.66
2023-03-27T08:56:04.936Z,95650.84
2023-03-27T08:58:38.016Z,95653.28
2023-03-27T09:01:44.953Z,95666.81
2023-03-27T09:04:38.727Z,95670.13
2023-03-27T09:07:18.695Z,95672.56
2023-03-27T09:10:25.577Z,95683.00
2023-03-27T09:13:04.805Z,95680.78
2023-03-27T09:15:44.868Z,95677.47
2023-03-27T09:18:30.982Z,95695.31
2023-03-27T09:21:17.792Z,95689.81
2023-03-27T09:23:46.377Z,95705.72
2023-03-27T09:26:34.671Z,95701.41
2023-03-27T09:29:20.266Z,95703.53
2023-03-27T09:31:53.131Z,95720.34
2023-03-27T09:34:29.718Z,95713.00
2023-03-27T09:36:59.163Z,95731.97
2023-03-27T09:39:32.461Z,95735.47
2023-03-27T09:42:26.320Z,95725.88
2023-03-27T09:44:56.869Z,95728.00
2023-03-27T09:47:33.328Z,95729.13
2023-03-27T09:50:22.267Z,95736.38
2023-03-27T09:53:17.388Z,95743.72
2023-03-27T09:55:55.554Z,95737.31
2023-03-27T09:58:27.846Z,95748.03
2023-03-27T10:01:16.062Z,95761.97
2023-03-27T10:03:56.027Z,95755.47
2023-03-27T10:06:39.260Z,95758.97
2023-03-27T10:09:32.086Z,95756.47
2023-03-27T10:12:19.539Z,95772.47
2023-03-27T10:14:52.689Z,95760.66
2023-03-27T10:17:40.674Z,95774.38
2023-03-27T10:20:15.945Z,95786.22
2023-03-27T10:22:54.917Z,95776.09
2023-03-27T10:25:38.778Z,95784.28
2023-03-27T10:28:24.657Z,95796.25
2023-03-27T10:31:34.099Z,95786.81
2023-03-27T10:34:08.134Z,95811.63
2023-03-27T10:37:20.435Z,95806.47
2023-03-27T10:39:53.084Z,95810.59
2023-03-27T10:42:32.703Z,95833.38
2023-03-27T10:45:00.176Z,95834.00
2023-03-27T10:47:33.776Z,95833.19
2023-03-27T10:50:09.871Z,95830.28
2023-03-27T10:53:19.583Z,95841.16
2023-03-27T10:56:10.950Z,95854.00
2023-03-27T10:58:52.084Z,95856.66
2023-03-27T11:01:40.606Z,95846.41
2023-03-27T11:04:58.282Z,95864.34
2023-03-27T11:07:33.786Z,95864.13
2023-03-27T11:10:06.396Z,95872.72
2023-03-27T11:12:36.719Z,95867.59
2023-03-27T11:15:22.384Z,95870.41
2023-03-27T11:18:29.051Z,95875.97
2023-03-27T11:21:04.548Z,95887.44
2023-03-27T11:24:03.892Z,95883.34
2023-03-27T11:27:03.506Z,95873.19
2023-03-27T11:29:35.871Z,95887.78
2023-03-27T11:32:50.207Z,95870.50
2023-03-27T11:35:24.646Z,95869.94
2023-03-27T11:38:19.319Z,95883.44
2023-03-27T11:40:47.884Z,95872.97
2023-03-27T11:43:16.734Z,95881.66
2023-03-27T11:46:02.355Z,95881.03
2023-03-27T11:49:00.536Z,95870.91
2023-03-27T11:51:47.887Z,95876.16
2023-03-27T11:54:40.584Z,95892.97
2023-03-27T11:57:23.589Z,95904.47
2023-03-27T12:00:33.840Z,95905.78
2023-03-27T12:03:28.676Z,95907.19
2023-03-27T12:06:22.496Z,95905.34
2023-03-27T12:09:03.044Z,95904.59
2023-03-27T12:11:47.816Z,95898.69
2023-03-27T12:14:40.568Z,95892.22
2023-03-27T12:17:36.653Z,95902.66
2023-03-27T12:20:23.908Z,95909.28
2023-03-27T12:23:12.568Z,95918.03
2023-03-27T12:25:49.578Z,95919.50
2023-03-27T12:28:49.817Z,95930.59
2023-03-27T12:31:54.980Z,95926.94
2023-03-27T12:35:06.330Z,95925.81
2023-03-27T12:37:48.950Z,95907.69
2023-03-27T12:40:59.135Z,95922.31
2023-03-27T12:43:33.632Z,95917.91
2023-03-27T12:46:24.272Z,95931.06
2023-03-27T12:49:02.519Z,95926.34
2023-03-27T12:51:38.894Z,95920.28
2023-03-27T12:54:13.482Z,95922.44
2023-03-27T12:56:41.123Z,95925.34
2023-03-27T12:59:20.397Z,95923.13
2023-03-27T13:02:03.466Z,95931.03
2023-03-27T13:05:08.603Z,95920.72
2023-03-27T13:07:50.009Z,95931.97
2023-03-27T13:11:16.192Z,95940.13
2023-03-27T13:14:13.095Z,95945.34
2023-03-27T13:17:14.878Z,95919.59
2023-03-27T13:19:47.708Z,95936.09
2023-03-27T13:23:03.212Z,95947.31
2023-03-27T13:25:48.968Z,95942.56
2023-03-27T13:28:39.157Z,95951.66
2023-03-27T13:31:12.145Z,95947.31
2023-03-27T13:34:21.754Z,95968.22
2023-03-27T13:37:06.681Z,95954.84
2023-03-27T13:39:48.123Z,95957.88
2023-03-27T13:42:22.588Z,95961.47
2023-03-27T13:45:04.577Z,95960.19
2023-03-27T13:47:58.923Z,95960.72
2023-03-27T13:51:00.625Z,95977.78
2023-03-27T13:53:49.458Z,95972.09
2023-03-27T13:57:07.284Z,95972.44
2023-03-27T14:00:24.692Z,95977.78
2023-03-27T14:03:10.781Z,95987.09
2023-03-27T14:06:20.231Z,96001.59
2023-03-27T14:09:10.881Z,96006.16
2023-03-27T14:12:19.725Z,95991.09
2023-03-27T14:15:14.233Z,96012.63
2023-03-27T14:17:53.101Z,96027.38
2023-03-27T14:20:26.568Z,96037.19
2023-03-27T14:23:03.312Z,96047.88
2023-03-27T14:25:47.637Z,96049.41
2023-03-27T14:28:49.263Z,96055.94
2023-03-27T14:31:19.243Z,96056.41
2023-03-27T14:34:13.288Z,96059.25
2023-03-27T14:36:42.471Z,96068.81
2023-03-27T14:39:25.058Z,96068.28
2023-03-27T14:42:01.513Z,96066.63
2023-03-27T14:44:32.450Z,96064.47
2023-03-27T14:47:08.240Z,96065.63
2023-03-27T14:49:48.917Z,96049.53
2023-03-27T14:52:24.988Z,96054.50
2023-03-27T14:55:29.796Z,96051.34
2023-03-27T14:58:18.535Z,96059.56
2023-03-27T15:00:57.947Z,96060.84
2023-03-27T15:03:30.324Z,96047.56
2023-03-27T15:06:04.435Z,96051.19
2023-03-27T15:08:39.956Z,96069.00
2023-03-27T15:11:19.762Z,96066.56
2023-03-27T15:14:20.564Z,96083.19
2023-03-27T15:17:01.483Z,96075.41
2023-03-27T15:19:34.877Z,96080.31
2023-03-27T15:22:14.688Z,96082.88
2023-03-27T15:24:50.820Z,96085.16
2023-03-27T15:27:26.845Z,96083.09
2023-03-27T15:30:02.711Z,96090.38
2023-03-27T15:32:42.208Z,96085.56
2023-03-27T15:35:15.618Z,96093.22
2023-03-27T15:37:42.812Z,96077.13
2023-03-27T15:40:31.168Z,96074.66
2023-03-27T15:43:02.337Z,96085.97
2023-03-27T15:45:53.106Z,96093.22
2023-03-27T15:48:21.132Z,96084.34
2023-03-27T15:50:54.269Z,96101.91
2023-03-27T15:53:45.167Z,96099.34
2023-03-27T15:56:36.991Z,96100.69
2023-03-27T15:59:09.262Z,96110.47
2023-03-27T16:01:42.046Z,96102.56
2023-03-27T16:04:14.106Z,96108.56
2023-03-27T16:06:44.945Z,96125.22
2023-03-27T16:09:35.224Z,96121.50
2023-03-27T16:12:01.928Z,96117.09
2023-03-27T16:14:29.959Z,96128.09
2023-03-27T16:17:09.951Z,96135.81
2023-03-27T16:19:56.433Z,96135.25
2023-03-27T16:22:33.939Z,96121.91
2023-03-27T16:25:01.654Z,96130.59
2023-03-27T16:27:33.862Z,96137.31
2023-03-27T16:30:00.439Z,96136.53
2023-03-27T16:32:26.933Z,96152.31
2023-03-27T16:34:53.493Z,96152.75
2023-03-27T16:37:22.979Z,96180.56
2023-03-27T16:39:49.995Z,96196.13
2023-03-27T16:42:19.214Z,96219.56
2023-03-27T16:44:46.460Z,96216.16
2023-03-27T16:47:14.351Z,96200.63
2023-03-27T16:49:41.194Z,96189.72
2023-03-27T16:52:08.372Z,96192.47
2023-03-27T16:54:35.094Z,96190.94
2023-03-27T16:57:01.625Z,96197.53
2023-03-27T16:59:28.374Z,96191.00
2023-03-27T17:01:55.782Z,96198.81
2023-03-27T17:04:22.989Z,96193.59
2023-03-27T17:06:49.844Z,96192.47
2023-03-27T17:09:16.286Z,96182.91
2023-03-27T17:11:43.191Z,96186.50
2023-03-27T17:14:10.030Z,96199.75
2023-03-27T17:16:36.586Z,96206.19
2023-03-27T17:19:03.163Z,96207.56
2023-03-27T17:21:29.709Z,96208.97
2023-03-27T17:23:58.005Z,96225.34
2023-03-27T17:26:29.530Z,96235.22
2023-03-27T17:28:56.710Z,96227.50
2023-03-27T17:31:23.827Z,96237.56
2023-03-27T17:33:50.589Z,96221.06
2023-03-27T17:36:26.840Z,96248.25
2023-03-27T17:39:05.754Z,96258.22
2023-03-27T17:41:32.647Z,96285.94
2023-03-27T17:43:59.386Z,96268.16
2023-03-27T17:46:26.033Z,96242.38
2023-03-27T17:48:52.676Z,96242.91
2023-03-27T17:51:19.153Z,96251.84
2023-03-27T17:53:45.828Z,96252.25
2023-03-27T17:56:12.274Z,96252.25
2023-03-27T17:58:38.768Z,96256.38
2023-03-27T18:01:16.346Z,96259.22
2023-03-27T18:03:43.020Z,96255.63
2023-03-27T18:06:09.632Z,96262.00
2023-03-27T18:08:36.466Z,96259.94
2023-03-27T18:11:07.708Z,96259.50
2023-03-27T18:13:34.473Z,96271.81
2023-03-27T18:16:04.296Z,96278.50
2023-03-27T18:18:32.941Z,96269.22
2023-03-27T18:20:59.727Z,96277.69
2023-03-27T18:23:27.110Z,96275.56
2023-03-27T18:25:55.227Z,96277.53
2023-03-27T18:28:22.297Z,96278.63
2023-03-27T18:30:58.009Z,96296.84
2023-03-27T18:33:24.635Z,96321.38
2023-03-27T18:35:56.763Z,96325.78
2023-03-27T18:38:25.023Z,96298.75
2023-03-27T18:40:52.231Z,96291.91
2023-03-27T18:43:18.722Z,96293.19
2023-03-27T18:45:45.231Z,96289.78
2023-03-27T18:48:11.762Z,96300.56
2023-03-27T18:50:38.247Z,96296.31
2023-03-27T18:53:05.385Z,96284.75
2023-03-27T18:55:32.374Z,96299.75
2023-03-27T18:57:58.839Z,96311.38
2023-03-27T19:00:25.392Z,96314.19
2023-03-27T19:02:51.975Z,96316.78
2023-03-27T19:05:18.958Z,96316.00
2023-03-27T19:07:45.761Z,96312.97
2023-03-27T19:10:13.920Z,96320.78
2023-03-27T19:12:43.963Z,96309.78
2023-03-27T19:15:30.972Z,96293.19
2023-03-27T19:17:57.680Z,96300.94
2023-03-27T19:21:01.332Z,96309.38
2023-03-27T19:23:47.633Z,96316.97
2023-03-27T19:26:17.552Z,96314.56
2023-03-27T19:28:47.804Z,96317.56
2023-03-27T19:31:14.759Z,96321.19
2023-03-27T19:33:41.858Z,96326.97
2023-03-27T19:36:09.862Z,96330.91
2023-03-27T19:38:37.413Z,96339.97
2023-03-27T19:41:08.046Z,96318.50
2023-03-27T19:43:34.784Z,96332.25
2023-03-27T19:46:14.894Z,96347.41
2023-03-27T19:48:44.492Z,96329.09
2023-03-27T19:51:19.884Z,96339.16
2023-03-27T19:53:49.894Z,96332.97
2023-03-27T19:56:19.866Z,96347.94
2023-03-27T19:58:46.315Z,96326.00
2023-03-27T20:01:12.763Z,96333.81
2023-03-27T20:03:39.931Z,96343.94
2023-03-27T20:06:13.264Z,96334.06
2023-03-27T20:08:42.260Z,96339.59
2023-03-27T20:11:12.631Z,96353.19
2023-03-27T20:13:53.027Z,96343.22
2023-03-27T20:16:26.071Z,96349.78
2023-03-27T20:19:03.648Z,96347.63
2023-03-27T20:21:36.108Z,96349.41
2023-03-27T20:24:09.594Z,96341.22
2023-03-27T20:26:41.446Z,96349.63
2023-03-27T20:29:17.013Z,96339.66
2023-03-27T20:31:45.043Z,96333.28
2023-03-27T20:34:12.215Z,96338.47
2023-03-27T20:36:39.178Z,96342.66
2023-03-27T20:39:29.373Z,96337.28
2023-03-27T20:41:59.068Z,96345.66
2023-03-27T20:44:35.843Z,96329.91
2023-03-27T20:47:03.520Z,96339.88
2023-03-27T20:49:40.783Z,96339.28
2023-03-27T20:52:11.313Z,96339.31
2023-03-27T20:54:37.788Z,96336.50
2023-03-27T20:57:04.736Z,96344.28
2023-03-27T20:59:31.391Z,96336.50
2023-03-27T21:01:59.121Z,96337.94
2023-03-27T21:04:28.212Z,96355.25
2023-03-27T21:06:55.374Z,96341.53
2023-03-27T21:09:23.087Z,96351.28
2023-03-27T21:11:54.436Z,96353.66
2023-03-27T21:14:21.025Z,96352.69
2023-03-27T21:16:47.709Z,96356.84
2023-03-27T21:19:14.187Z,96358.69
2023-03-27T21:21:40.941Z,96346.47
2023-03-27T21:24:08.056Z,96369.63
2023-03-27T21:26:35.282Z,96352.28
2023-03-27T21:29:03.222Z,96356.50
2023-03-27T21:31:29.967Z,96352.03
2023-03-27T21:33:56.623Z,96359.28
2023-03-27T21:36:23.428Z,96352.72
2023-03-27T21:38:49.973Z,96351.34
2023-03-27T21:41:17.178Z,96359.69
2023-03-27T21:43:44.480Z,96376.28
2023-03-27T21:46:11.140Z,96370.88
2023-03-27T21:48:40.371Z,96382.25
2023-03-27T21:51:08.650Z,96382.84
2023-03-27T21:53:35.763Z,96380.63
2023-03-27T21:56:02.442Z,96376.44
2023-03-27T21:58:29.097Z,96375.63
2023-03-27T22:00:57.418Z,96399.78
2023-03-27T22:03:25.029Z,96397.63
2023-03-27T22:06:07.682Z,96388.44
2023-03-27T22:08:38.636Z,96395.78
2023-03-27T22:11:05.626Z,96398.38
2023-03-27T22:13:33.924Z,96390.56
2023-03-27T22:16:00.745Z,96404.59
2023-03-27T22:18:27.463Z,96409.19
2023-03-27T22:20:54.073Z,96403.41
2023-03-27T22:23:20.506Z,96413.34
2023-03-27T22:25:55.052Z,96423.97
2023-03-27T22:28:21.545Z,96402.81
2023-03-27T22:30:48.269Z,96416.19
2023-03-27T22:33:14.852Z,96410.41
2023-03-27T22:35:47.709Z,96408.81
2023-03-27T22:38:14.614Z,96417.59
2023-03-27T22:40:41.049Z,96424.19
2023-03-27T22:43:07.634Z,96418.59
2023-03-27T22:45:37.068Z,96377.94
2023-03-27T22:48:05.597Z,96425.97
2023-03-27T22:50:32.259Z,96424.00
2023-03-27T22:52:58.682Z,96437.59
2023-03-27T22:55:25.384Z,96432.19
2023-03-27T22:57:51.927Z,96436.75
2023-03-27T23:00:18.889Z,96417.84
2023-03-27T23:02:45.394Z,96417.63
2023-03-27T23:05:11.986Z,96430.81
2023-03-27T23:07:38.485Z,96375.75
2023-03-27T23:10:05.458Z,96374.75
2023-03-27T23:12:31.908Z,96452.16
2023-03-27T23:14:58.352Z,96446.38
2023-03-27T23:17:24.857Z,96428.41
2023-03-27T23:19:51.526Z,96440.59
2023-03-27T23:22:17.953Z,96460.97
2023-03-27T23:24:45.022Z,96432.44
2023-03-27T23:27:12.736Z,96471.94
2023-03-27T23:29:39.225Z,96463.16
2023-03-27T23:32:05.882Z,96466.75
2023-03-27T23:34:32.359Z,96475.94
2023-03-27T23:36:59.746Z,96402.28
2023-03-27T23:39:26.287Z,96470.09
2023-03-27T23:41:52.713Z,96478.09
2023-03-27T23:44:19.186Z,96469.13
2023-03-27T23:46:45.778Z,96389.91
2023-03-27T23:49:13.182Z,96487.09
2023-03-27T23:51:39.622Z,96487.09
2023-03-27T23:54:06.117Z,96461.56
2023-03-27T23:56:32.554Z,96471.13
2023-03-27T23:58:59.168Z,96501.50
